Airfield :
LOGIN :

Register | Disclaimer

   EN    FR    IT 

 










Legend :    VFR   Marginal VFR   IFR   Intensive IFR   Very Intensive IFR
Visi :
Ceiling :
>= 8 km
>= 3000ft
5 to 8 km
1000 to 3000 ft
1500m to 5 km
500 to 1000 ft
800 to 1500m
200 to 500 ft
< 800m
< 200 ft
Symbols :   Thunderstorms  Fog  Heavy snow  Heavy precipitations  Wind > 20 kt
SIGMETs :     Misc.  Thunderstorms  Icing  Turbulence  Mountain Waves  Volcanic Ashes






- Airport Elevation : 876 ft
- IATA code : MBX


LJMB - Maribor

CURRENT METAR :
  • 220400Z AUTO 00000KT 8000 NSC M06/M07 Q1033

EXPIRED METARs :
  • 220330Z AUTO 33001KT 7000 NSC M05/M06 Q1033
  • 220300Z AUTO 34002KT 6000 NSC M05/M07 Q1034
  • 220230Z AUTO 34003KT 7000 NSC M06/M07 Q1034
  • 220200Z AUTO 02001KT 5000 FEW007/// M06/M07 Q1035
  • 220130Z AUTO 35001KT 5000 VV004 M05/M06 Q1035

TAF TAF LJMB
Valid from the 22 at 03:00 until the 23 at 03:00 UTC


220200Z 2203/2303 34002KT 5000 BR NSC
TEMPO 2203/2208 1500 BCFG SCT001
PROB40
TEMPO 2203/2208 0350 FZFG VV001
BECMG 2210/2213 04003KT CAVOK
TEMPO 2300/2303 3500 BR



MET'MAP, your aeronautical weather chart ! - Copyright ORBIFLY December 2007 - Disclaimer

ORBIFLY MET'MAP TEAM :

Programming & Development : Alexandra Zaïnal
Concept & original design : Baudouin d'Aumeries
Assistance for programming : Marc-Olivier Méhu
Technical & hardware support : Manuel Goepfert

Contact : metmap@orbifly.com




SOURCES & CREDITS :

   NOAA